Grantley Adams, Barbados

7:09 PM AST on November 26, 2014 (GMT -0400)
ISTPHILI3 | Change Station
CLOSE
Current Station
Personal Weather Station
Location: Mount Pleasant, ST PHILIP
Elevation: 548 ft
Nearby Weather Stations

Elev 548 ft 13.16 °N, 59.47 °W | Updated 1 second ago

Partly Cloudy
Partly Cloudy
77.6 °F
Feels Like 80 °F
N
6.0
Wind Variable Wind from ENE
Gusts 11.0 mph

Today
High -- | Low -- °F
--% Chance of Precip.
Yesterday
High -- | Low -- °F
Precip. -- in
6:01 AM 5:28 PM
Waxing Crescent, 23% visible
Pressure 29.89 in
Visibility 6.2 miles
Clouds Few 1800 ft
Heat Index 80 °F
Dew Point 73 °F
Humidity 86%
Rainfall 0.00 in
Snow Depth Not available.
UV 0 out of 12
Pollen Not available.
Air Quality Not available.
Flu Activity Not available.
METAR TBPB 262300Z 06012KT 9999 FEW018 26/23 Q1012 NOSIG

More Conditions Fewer Conditions

Pressure 29.89 in
Visibility 6.2 miles
Clouds Few 1800 ft
Heat Index 80 °F
Dew Point 73 °F
Humidity 86%
Rainfall 0.00 in
Snow Depth Not available.
UV 0 out of 12
Pollen Not available.
Air Quality Not available.
Flu Activity Not available.
METAR TBPB 262300Z 06012KT 9999 FEW018 26/23 Q1012 NOSIG

More Conditions Fewer Conditions

10-Day Weather Forecast

Almanac

Astronomy

Nov. 26, 2014 Rise Set
Actual Time
Civil Twilight
Nautical Twilight
Astronomical Twilight
Moon
Length of Visible Light
Length of Day
Tomorrow will be .
, % of the Moon is Illuminated

Today's Extremes

Country Highs Country Lows

Community

WunderPhotos

Upload Photos

1,773,913 photos uploaded!

WunderBlogs® & News

Nearby

Air Quality

  Air Quality AQ Index Pollutant
Not available.

Snow Depth

Station Depth Elevation

Earthquake Activity

City Distance Mag. Time & Date
Minimum magnitude displayed is 2.5.

Coastal Water Temperatures

Place Temperature

Nearby Weather Stations